Time;durP1;ratioP1;P1;durP2;ratioP2;P2;SDS_P1;SDS_P2;PMS_P1;PMS_P2;Temp;Humidity;BMP_temperature;BMP_pressure;BME280_temperature;BME280_humidity;BME280_pressure;Samples;Min_cycle;Max_cycle;Signal;HPM_P1;HPM_P2
2023/04/26 00:03:17;;;;;;;2.67;1.75;;;;;;;9.55;49.36;100287.41;10295825;28;20125;-74
2023/04/26 00:08:19;;;;;;;3.83;2.17;;;;;;;9.58;49.60;100291.63;10280168;28;20051;-73
2023/04/26 00:13:20;;;;;;;5.78;2.05;;;;;;;9.55;49.86;100292.72;10250393;28;20046;-71
2023/04/26 00:18:22;;;;;;;3.72;1.77;;;;;;;9.46;49.90;100288.94;10265662;28;20047;-73
2023/04/26 00:23:24;;;;;;;4.68;1.70;;;;;;;9.36;50.21;100290.59;10267547;28;20053;-71
2023/04/26 00:28:25;;;;;;;4.90;2.10;;;;;;;9.41;50.17;100301.72;10273660;28;20145;-72
2023/04/26 00:33:26;;;;;;;5.50;2.08;;;;;;;9.50;50.43;100300.19;10259238;28;20050;-71
2023/04/26 00:38:28;;;;;;;3.15;1.83;;;;;;;9.49;50.41;100307.31;10265896;28;20050;-70
2023/04/26 00:43:29;;;;;;;3.63;2.25;;;;;;;9.39;51.02;100306.31;10275450;28;20125;-72
2023/04/26 00:48:32;;;;;;;5.05;2.15;;;;;;;9.44;51.25;100305.94;10271391;28;20425;-71
2023/04/26 00:53:34;;;;;;;4.35;1.90;;;;;;;9.32;51.59;100310.38;10291479;28;20039;-71
2023/04/26 00:58:36;;;;;;;4.22;2.00;;;;;;;9.33;51.82;100304.94;10316333;28;20077;-73
2023/04/26 01:03:38;;;;;;;3.80;2.03;;;;;;;9.25;51.78;100312.66;10305912;28;20051;-73
2023/04/26 01:08:40;;;;;;;5.85;2.15;;;;;;;9.18;52.05;100311.41;10259826;28;20181;-71
2023/04/26 01:13:42;;;;;;;4.35;2.30;;;;;;;9.07;52.42;100301.56;10272611;28;20098;-71
2023/04/26 01:18:49;;;;;;;4.95;2.30;;;;;;;9.03;52.77;100308.06;10267289;28;20121;-71
2023/04/26 01:23:51;;;;;;;4.80;2.53;;;;;;;9.06;52.96;100297.22;10272595;28;20059;-70
2023/04/26 01:28:53;;;;;;;3.83;2.38;;;;;;;9.02;53.12;100304.56;10269020;28;20133;-70
2023/04/26 01:33:54;;;;;;;4.53;2.20;;;;;;;8.98;53.17;100302.25;10267155;28;20113;-72
2023/04/26 01:38:56;;;;;;;3.13;2.03;;;;;;;8.91;53.46;100290.38;10270585;28;20054;-70
2023/04/26 01:43:58;;;;;;;4.80;2.33;;;;;;;8.89;53.93;100294.94;10250115;28;20161;-70
2023/04/26 01:48:59;;;;;;;6.43;3.13;;;;;;;8.84;53.95;100298.78;10305223;28;20059;-70
2023/04/26 01:54:01;;;;;;;3.42;2.35;;;;;;;8.83;54.10;100298.91;10268795;28;20058;-71
2023/04/26 01:59:03;;;;;;;4.25;2.90;;;;;;;8.77;54.83;100296.69;10262497;28;20054;-69
2023/04/26 02:04:05;;;;;;;7.13;2.83;;;;;;;8.88;54.35;100311.84;10255757;28;20081;-71
2023/04/26 02:09:08;;;;;;;5.15;2.90;;;;;;;8.77;53.94;100302.00;10264494;28;20050;-70
2023/04/26 02:14:09;;;;;;;2.95;2.10;;;;;;;8.78;53.69;100309.84;10252634;28;20065;-69
2023/04/26 02:19:11;;;;;;;3.58;2.22;;;;;;;8.67;54.41;100313.25;10265002;28;20526;-71
2023/04/26 02:24:12;;;;;;;5.05;2.70;;;;;;;8.61;55.41;100316.34;10268319;28;20130;-70
2023/04/26 02:29:14;;;;;;;4.90;2.65;;;;;;;8.61;55.47;100310.22;10267920;28;20055;-70
2023/04/26 02:34:16;;;;;;;6.10;3.08;;;;;;;8.55;55.91;100318.59;10265318;28;20058;-70
2023/04/26 02:39:18;;;;;;;5.30;3.90;;;;;;;8.42;56.07;100313.28;10268115;28;20058;-68
2023/04/26 02:44:19;;;;;;;4.75;3.22;;;;;;;8.45;56.00;100308.66;10248506;28;20705;-69
2023/04/26 02:49:21;;;;;;;3.90;2.60;;;;;;;8.45;55.48;100313.09;10267388;28;20054;-70
2023/04/26 02:54:22;;;;;;;6.10;2.03;;;;;;;8.43;54.71;100310.50;10251641;28;20070;-70
2023/04/26 02:59:24;;;;;;;5.50;2.17;;;;;;;8.41;54.28;100306.28;10267837;28;20552;-70
2023/04/26 03:04:25;;;;;;;4.45;1.90;;;;;;;8.28;54.45;100303.66;10267377;28;20089;-71
2023/04/26 03:09:26;;;;;;;4.03;2.97;;;;;;;8.23;55.20;100303.13;10248706;28;20070;-70
2023/04/26 03:14:28;;;;;;;4.85;2.90;;;;;;;8.15;55.93;100306.28;10265581;28;20058;-69
2023/04/26 03:19:29;;;;;;;5.45;3.10;;;;;;;8.13;55.92;100303.75;10268620;28;20421;-70
2023/04/26 03:24:31;;;;;;;6.32;2.80;;;;;;;7.99;56.00;100295.91;10257500;28;20070;-70
2023/04/26 03:29:33;;;;;;;4.95;2.47;;;;;;;7.86;56.19;100297.72;10265697;28;20062;-72
2023/04/26 03:34:34;;;;;;;4.55;2.60;;;;;;;7.81;56.23;100297.16;10259307;28;20915;-70
2023/04/26 03:39:35;;;;;;;3.50;2.28;;;;;;;7.83;56.61;100301.41;10271240;28;20054;-69
2023/04/26 03:44:37;;;;;;;3.83;2.92;;;;;;;7.74;56.96;100308.19;10270866;28;20298;-72
2023/04/26 03:49:38;;;;;;;4.35;2.78;;;;;;;7.61;57.78;100302.00;10272662;28;20818;-70
2023/04/26 03:54:39;;;;;;;6.32;3.00;;;;;;;7.44;58.31;100306.63;10281377;28;20137;-70
2023/04/26 03:59:41;;;;;;;7.03;3.95;;;;;;;7.37;59.87;100304.50;10293465;28;20062;-70
2023/04/26 04:04:42;;;;;;;5.05;3.03;;;;;;;7.35;59.97;100312.56;10273111;28;20197;-72
2023/04/26 04:09:44;;;;;;;3.38;2.85;;;;;;;7.34;60.37;100305.56;10297594;28;20288;-70
2023/04/26 04:14:46;;;;;;;4.53;3.15;;;;;;;7.30;60.28;100304.06;10276589;28;20356;-71
2023/04/26 04:19:47;;;;;;;5.00;3.45;;;;;;;7.20;61.77;100308.28;10275118;28;20057;-70
2023/04/26 04:24:49;;;;;;;4.47;3.50;;;;;;;7.14;62.31;100308.69;10279450;28;20455;-71
2023/04/26 04:29:50;;;;;;;7.00;4.03;;;;;;;7.08;62.44;100315.22;10279621;28;20084;-70
2023/04/26 04:34:53;;;;;;;5.72;3.88;;;;;;;7.01;62.21;100321.84;10275845;28;20521;-69
2023/04/26 04:39:54;;;;;;;5.50;3.88;;;;;;;6.96;62.26;100327.44;10249543;28;20053;-70
2023/04/26 04:44:56;;;;;;;4.80;4.18;;;;;;;7.01;61.83;100328.00;10271411;28;20058;-70
2023/04/26 04:49:57;;;;;;;5.03;4.30;;;;;;;6.95;62.47;100332.81;10270245;28;20131;-70
2023/04/26 04:55:00;;;;;;;5.57;4.38;;;;;;;6.87;63.02;100343.91;10271134;28;20216;-70
2023/04/26 05:00:06;;;;;;;4.93;4.43;;;;;;;6.84;62.64;100350.22;10273911;28;20205;-71
2023/04/26 05:05:09;;;;;;;6.88;4.72;;;;;;;6.90;62.80;100363.09;10270202;28;20141;-69
2023/04/26 05:10:11;;;;;;;5.03;4.55;;;;;;;7.01;62.72;100367.72;10259121;28;20051;-75
2023/04/26 05:15:13;;;;;;;6.25;4.03;;;;;;;6.94;63.08;100363.75;10271409;28;20141;-79
2023/04/26 05:20:14;;;;;;;4.65;4.22;;;;;;;6.87;63.24;100362.44;10264902;28;20069;-74
2023/04/26 05:25:16;;;;;;;4.80;4.30;;;;;;;6.87;63.04;100370.38;10283098;28;20054;-74
2023/04/26 05:30:18;;;;;;;6.70;4.50;;;;;;;6.87;62.91;100375.66;10272046;28;20054;-71
2023/04/26 05:35:19;;;;;;;4.93;4.18;;;;;;;6.93;63.10;100385.03;10292109;28;20810;-73
2023/04/26 05:40:20;;;;;;;6.95;5.05;;;;;;;6.99;63.59;100379.34;10269237;28;20835;-74
2023/04/26 05:45:22;;;;;;;5.38;4.10;;;;;;;7.06;63.16;100386.78;10284413;28;20047;-75
2023/04/26 05:50:23;;;;;;;4.80;4.30;;;;;;;7.19;62.84;100391.28;10265227;28;20054;-76
2023/04/26 05:55:25;;;;;;;7.25;4.60;;;;;;;7.37;62.42;100390.13;10268412;28;20046;-72
2023/04/26 06:00:26;;;;;;;7.65;4.50;;;;;;;7.44;62.48;100386.09;10284685;28;20054;-73
2023/04/26 06:05:28;;;;;;;5.88;4.65;;;;;;;7.59;62.23;100394.00;10277729;28;20065;-77
2023/04/26 06:10:29;;;;;;;9.68;7.55;;;;;;;7.76;61.38;100403.47;10266805;28;20054;-75
2023/04/26 06:15:30;;;;;;;11.23;9.60;;;;;;;7.96;60.36;100412.78;10289987;28;20150;-74
2023/04/26 06:20:32;;;;;;;22.15;20.20;;;;;;;8.18;59.99;100406.00;10286934;28;20141;-75
2023/04/26 06:25:33;;;;;;;11.88;8.80;;;;;;;8.39;58.21;100404.56;10283155;28;20116;-74
2023/04/26 06:30:35;;;;;;;8.05;4.95;;;;;;;8.56;57.62;100405.22;10283641;28;20074;-76
2023/04/26 06:35:40;;;;;;;7.03;4.47;;;;;;;8.77;57.33;100411.66;10269607;28;20058;-74
2023/04/26 06:40:41;;;;;;;;;;;;;;;8.78;56.54;100418.69;10280624;28;20535;-77
2023/04/26 06:45:43;;;;;;;6.30;4.85;;;;;;;8.91;56.58;100409.84;10268380;28;19922;-74
2023/04/26 06:50:44;;;;;;;6.20;2.47;;;;;;;9.12;54.55;100416.25;10262901;28;20898;-75
2023/04/26 06:55:45;;;;;;;5.13;2.05;;;;;;;9.07;51.02;100410.44;10266491;28;20042;-74
2023/04/26 07:00:47;;;;;;;8.25;5.40;;;;;;;9.26;52.50;100420.56;10272756;28;20050;-74
2023/04/26 07:05:48;;;;;;;5.50;3.63;;;;;;;9.51;52.10;100416.16;10266479;28;20623;-76
2023/04/26 07:10:50;;;;;;;2.83;1.55;;;;;;;9.78;49.37;100431.84;10260508;28;20055;-74
2023/04/26 07:15:51;;;;;;;2.70;1.38;;;;;;;9.82;47.13;100421.84;10273899;28;20686;-74
2023/04/26 07:20:53;;;;;;;5.30;2.00;;;;;;;9.85;46.75;100422.47;10259309;28;20060;-77
2023/04/26 07:25:56;;;;;;;4.30;1.80;;;;;;;9.94;46.69;100428.91;10273876;28;20328;-74
2023/04/26 07:31:00;;;;;;;4.80;1.35;;;;;;;10.17;47.03;100419.19;10273252;28;20062;-73
2023/04/26 07:36:01;;;;;;;3.17;1.00;;;;;;;10.36;45.06;100415.16;10275116;28;20054;-77
2023/04/26 07:41:03;;;;;;;5.10;1.33;;;;;;;10.65;46.06;100409.38;10296096;28;20058;-76
2023/04/26 07:46:05;;;;;;;6.07;1.98;;;;;;;10.66;45.05;100416.38;10270258;28;20462;-76
2023/04/26 07:51:10;;;;;;;4.82;1.35;;;;;;;10.93;44.79;100405.41;10272452;28;20060;-75
2023/04/26 07:56:12;;;;;;;4.32;1.33;;;;;;;11.19;45.09;100405.94;10257524;28;20055;-76
2023/04/26 08:01:13;;;;;;;2.25;1.20;;;;;;;11.44;44.39;100401.28;10261100;28;20525;-74
2023/04/26 08:06:17;;;;;;;3.55;1.42;;;;;;;11.79;43.96;100400.22;10277773;28;21143;-76
2023/04/26 08:11:18;;;;;;;4.10;1.90;;;;;;;12.00;42.71;100402.94;10274477;28;20058;-74
2023/04/26 08:16:20;;;;;;;6.20;1.70;;;;;;;11.96;41.67;100402.31;10275250;28;20064;-76
2023/04/26 08:21:22;;;;;;;3.50;1.50;;;;;;;12.36;42.05;100409.63;10270670;28;20058;-76
2023/04/26 08:26:23;;;;;;;3.97;1.92;;;;;;;12.56;42.04;100399.06;10330653;28;20078;-76
2023/04/26 08:31:26;;;;;;;5.15;2.00;;;;;;;12.32;41.56;100405.50;10324476;28;20106;-77
2023/04/26 08:36:28;;;;;;;5.40;2.28;;;;;;;12.40;40.20;100401.34;10266668;28;20592;-74
2023/04/26 08:41:35;;;;;;;4.30;1.98;;;;;;;12.46;41.68;100404.34;10307310;28;20050;-74
2023/04/26 08:46:56;;;;;;;4.07;1.80;;;;;;;12.27;41.91;100405.06;10303639;28;20046;-75
2023/04/26 08:51:59;;;;;;;6.03;2.58;;;;;;;12.56;41.66;100404.38;10294530;28;20057;-73
2023/04/26 08:57:01;;;;;;;6.72;2.25;;;;;;;12.53;40.16;100400.16;10296885;28;20062;-75
2023/04/26 09:02:08;;;;;;;3.25;1.75;;;;;;;12.85;41.02;100390.31;10281308;28;20104;-74
2023/04/26 09:07:14;;;;;;;5.97;2.33;;;;;;;12.95;39.76;100388.53;10296900;28;20082;-76
2023/04/26 09:12:20;;;;;;;5.75;2.35;;;;;;;12.84;39.45;100375.28;10275059;28;20078;-75
2023/04/26 09:17:25;;;;;;;4.45;1.80;;;;;;;12.73;40.12;100378.91;10275251;28;20057;-76
2023/04/26 09:22:31;;;;;;;4.72;2.15;;;;;;;12.62;40.01;100373.66;10281041;28;20058;-76
2023/04/26 09:27:38;;;;;;;3.80;1.88;;;;;;;12.70;39.85;100369.34;10285349;28;20432;-77
2023/04/26 09:32:47;;;;;;;3.97;1.80;;;;;;;13.13;39.63;100380.69;10281862;28;20050;-76
2023/04/26 09:37:55;;;;;;;4.32;1.92;;;;;;;13.41;38.95;100379.09;10277579;28;20062;-77
2023/04/26 09:43:14;;;;;;;2.83;2.00;;;;;;;13.95;37.28;100378.69;10269185;28;20480;-75
2023/04/26 09:48:21;;;;;;;5.55;2.17;;;;;;;13.85;37.16;100365.31;10272423;28;20521;-76
2023/04/26 09:53:27;;;;;;;5.22;2.00;;;;;;;14.12;38.08;100369.09;10272293;28;20053;-76
2023/04/26 09:58:28;;;;;;;4.38;2.22;;;;;;;14.19;37.03;100366.69;10280749;28;20138;-74
2023/04/26 10:03:32;;;;;;;4.65;2.22;;;;;;;14.39;35.93;100362.97;10271387;28;20054;-74
2023/04/26 10:08:35;;;;;;;3.35;1.90;;;;;;;13.77;36.00;100352.66;10259505;28;20060;-76
2023/04/26 10:13:38;;;;;;;6.07;2.30;;;;;;;13.53;36.06;100361.09;10282101;28;20658;-75
2023/04/26 10:18:40;;;;;;;3.58;2.30;;;;;;;13.57;37.34;100351.81;10274754;28;20080;-76
2023/04/26 10:23:42;;;;;;;3.05;1.80;;;;;;;12.81;39.15;100348.84;10258984;28;20816;-74
2023/04/26 10:28:43;;;;;;;4.50;2.17;;;;;;;12.70;39.01;100352.44;10260521;28;20062;-74
2023/04/26 10:34:18;;;;;;;5.63;2.08;;;;;;;12.97;38.57;100354.53;10280648;28;20061;-73
2023/04/26 10:39:24;;;;;;;5.85;2.50;;;;;;;13.06;38.55;100347.50;10277365;28;20176;-76
2023/04/26 10:44:39;;;;;;;4.60;2.38;;;;;;;13.97;37.05;100340.09;10264930;28;20077;-74
2023/04/26 10:49:47;;;;;;;4.25;2.22;;;;;;;14.47;35.16;100333.63;10278483;28;20054;-77
2023/04/26 10:54:52;;;;;;;4.72;2.10;;;;;;;15.08;32.78;100328.69;10254777;28;20054;-76
2023/04/26 11:00:19;;;;;;;3.53;1.40;;;;;;;14.74;33.30;100313.25;10245302;28;20055;-77
2023/04/26 11:05:53;;;;;;;5.22;2.25;;;;;;;14.39;34.57;100308.56;10249342;28;20196;-77
2023/04/26 11:11:03;;;;;;;3.45;1.83;;;;;;;15.27;32.60;100308.13;10276577;28;20645;-74
2023/04/26 11:16:10;;;;;;;5.25;1.92;;;;;;;15.55;31.81;100298.97;10272071;28;20058;-75
2023/04/26 11:21:16;;;;;;;8.45;3.13;;;;;;;15.76;32.09;100303.16;10265315;28;20045;-78
2023/04/26 11:26:17;;;;;;;4.28;1.63;;;;;;;15.71;32.06;100305.47;10271470;28;20061;-75
2023/04/26 11:31:19;;;;;;;2.20;1.38;;;;;;;16.45;31.35;100297.91;10276341;28;20520;-80
2023/04/26 11:36:21;;;;;;;4.18;1.60;;;;;;;17.28;30.58;100293.66;10257042;28;24715;-76
2023/04/26 11:41:23;;;;;;;3.72;2.00;;;;;;;16.87;30.74;100291.69;10251352;28;20101;-74
2023/04/26 11:46:25;;;;;;;4.10;1.70;;;;;;;17.59;30.29;100283.06;10247149;28;20240;-74
2023/04/26 11:51:28;;;;;;;4.97;1.50;;;;;;;17.77;29.90;100284.72;10250103;28;20069;-74
2023/04/26 11:56:32;;;;;;;5.32;2.33;;;;;;;17.22;31.35;100273.63;10251649;28;20077;-76
2023/04/26 12:01:33;;;;;;;7.15;2.67;;;;;;;17.00;31.27;100275.09;10271304;28;20059;-73
2023/04/26 12:06:43;;;;;;;3.30;2.17;;;;;;;16.80;30.63;100274.53;10319948;28;20146;-74
2023/04/26 12:12:05;;;;;;;3.60;1.77;;;;;;;16.88;30.77;100277.25;10272818;28;20074;-76
2023/04/26 12:17:06;;;;;;;4.78;2.33;;;;;;;16.74;30.75;100275.19;10254608;28;20054;-76
2023/04/26 12:22:08;;;;;;;3.55;1.92;;;;;;;16.88;31.69;100269.19;10265015;28;20360;-73
2023/04/26 12:27:20;;;;;;;8.27;1.98;;;;;;;16.99;31.35;100277.97;10249241;28;20521;-73
2023/04/26 12:32:22;;;;;;;3.08;1.75;;;;;;;16.96;31.86;100258.47;10252675;28;20189;-75
2023/04/26 12:37:24;;;;;;;4.55;2.08;;;;;;;16.71;30.92;100265.59;10279036;28;20148;-78
2023/04/26 12:42:25;;;;;;;4.80;2.13;;;;;;;16.81;31.06;100260.06;10274496;28;20066;-75
2023/04/26 12:47:26;;;;;;;3.58;2.25;;;;;;;17.17;30.15;100259.84;10255903;28;20057;-75
2023/04/26 12:52:29;;;;;;;2.67;1.42;;;;;;;17.03;29.75;100263.19;10292323;28;20062;-76
2023/04/26 12:57:30;;;;;;;6.13;2.28;;;;;;;17.10;29.79;100253.47;10291087;28;20046;-73
2023/04/26 13:02:33;;;;;;;3.95;1.88;;;;;;;17.49;30.44;100255.50;10260407;28;20059;-72
2023/04/26 13:07:38;;;;;;;3.90;1.70;;;;;;;17.42;28.46;100257.19;10272762;28;20136;-72
2023/04/26 13:12:39;;;;;;;4.05;1.63;;;;;;;17.51;27.91;100250.78;10275010;28;20050;-72
2023/04/26 13:17:43;;;;;;;2.85;0.98;;;;;;;17.80;27.04;100239.47;10274011;28;20057;-74
2023/04/26 13:22:45;;;;;;;3.72;2.05;;;;;;;18.11;27.73;100248.69;10254604;28;20105;-72
2023/04/26 13:27:46;;;;;;;5.88;4.45;;;;;;;17.61;29.01;100251.44;10264137;28;20077;-73
2023/04/26 13:32:48;;;;;;;4.25;1.58;;;;;;;16.93;30.20;100257.94;10271951;28;20051;-72
2023/04/26 13:37:49;;;;;;;2.38;1.58;;;;;;;17.34;28.73;100259.84;10271051;28;20208;-71
2023/04/26 13:42:51;;;;;;;4.50;1.58;;;;;;;17.32;28.44;100246.56;10270391;28;20051;-71
2023/04/26 13:47:52;;;;;;;3.90;1.50;;;;;;;17.46;28.59;100253.16;10254821;28;20589;-73
2023/04/26 13:52:54;;;;;;;4.63;1.50;;;;;;;17.37;27.38;100244.22;10267745;28;20516;-72
2023/04/26 13:57:56;;;;;;;5.85;1.33;;;;;;;17.49;28.21;100250.13;10266910;28;20058;-74
2023/04/26 14:02:57;;;;;;;2.25;1.45;;;;;;;17.02;27.44;100240.00;10268427;28;20058;-74
2023/04/26 14:07:59;;;;;;;4.80;1.55;;;;;;;16.92;28.16;100240.16;10270682;28;20073;-76
2023/04/26 14:13:01;;;;;;;3.00;1.25;;;;;;;16.96;28.23;100228.91;10273453;28;20265;-75
2023/04/26 14:18:03;;;;;;;3.17;1.40;;;;;;;17.20;27.89;100237.16;10251785;28;20216;-72
2023/04/26 14:23:04;;;;;;;4.10;1.70;;;;;;;17.27;29.64;100224.72;10255694;28;20461;-73
2023/04/26 14:28:07;;;;;;;2.53;1.55;;;;;;;17.23;28.98;100232.25;10262747;28;20058;-73
2023/04/26 14:33:12;;;;;;;3.63;1.50;;;;;;;17.13;29.98;100231.63;10257720;28;20559;-74
2023/04/26 14:38:17;;;;;;;13.40;3.00;;;;;;;17.05;29.53;100234.28;10256617;28;20045;-72
2023/04/26 14:43:18;;;;;;;2.47;1.85;;;;;;;16.84;28.91;100211.34;10248664;28;20046;-73
2023/04/26 14:48:20;;;;;;;3.78;1.38;;;;;;;16.69;28.97;100213.84;10262819;28;20300;-76
2023/04/26 14:53:21;;;;;;;2.83;1.63;;;;;;;16.46;30.50;100210.94;10253038;28;20054;-72
2023/04/26 14:58:23;;;;;;;4.45;1.73;;;;;;;16.30;28.85;100216.25;10265396;28;20051;-73
2023/04/26 15:03:26;;;;;;;3.33;1.67;;;;;;;16.30;29.04;100200.13;10245255;28;20527;-73
2023/04/26 15:08:28;;;;;;;4.30;1.67;;;;;;;16.30;29.76;100192.06;10263058;28;20062;-75
2023/04/26 15:13:29;;;;;;;4.60;1.80;;;;;;;16.36;30.19;100186.03;10258514;28;21056;-72
2023/04/26 15:18:31;;;;;;;3.45;1.30;;;;;;;16.17;29.78;100193.38;10262267;28;20061;-74
2023/04/26 15:23:35;;;;;;;5.88;1.73;;;;;;;15.86;30.67;100185.81;10252946;28;20054;-73
2023/04/26 15:28:36;;;;;;;4.55;1.42;;;;;;;15.72;32.13;100181.03;10258255;28;20047;-74
2023/04/26 15:33:37;;;;;;;5.95;1.45;;;;;;;15.77;31.95;100186.75;10262334;28;20057;-72
2023/04/26 15:38:43;;;;;;;3.05;1.92;;;;;;;15.70;31.67;100178.50;10265801;28;20054;-70
2023/04/26 15:43:44;;;;;;;3.72;2.15;;;;;;;15.48;32.69;100179.88;10279747;28;20050;-75
2023/04/26 15:48:46;;;;;;;5.13;2.47;;;;;;;15.37;32.99;100180.13;10273007;28;20349;-72
2023/04/26 15:53:49;;;;;;;6.45;2.42;;;;;;;15.28;33.30;100186.41;10260841;28;20042;-73
2023/04/26 15:58:51;;;;;;;3.83;2.00;;;;;;;15.24;33.16;100182.38;10267788;28;20062;-76
2023/04/26 16:03:52;;;;;;;5.32;2.20;;;;;;;15.16;33.89;100181.31;10264650;28;20050;-72
2023/04/26 16:08:54;;;;;;;4.63;2.13;;;;;;;15.05;33.57;100188.75;10264237;28;20062;-74
2023/04/26 16:13:56;;;;;;;2.83;2.08;;;;;;;15.00;34.33;100186.53;10261281;28;20054;-74
2023/04/26 16:18:57;;;;;;;3.67;2.17;;;;;;;14.83;35.04;100194.44;10264122;28;20054;-72
2023/04/26 16:23:59;;;;;;;3.88;2.13;;;;;;;14.79;34.30;100178.81;10254012;28;20254;-73
2023/04/26 16:29:00;;;;;;;4.18;2.20;;;;;;;14.77;35.17;100181.66;10263202;28;20615;-73
2023/04/26 16:34:02;;;;;;;5.43;2.25;;;;;;;14.74;35.00;100181.09;10251573;28;20054;-72
2023/04/26 16:39:03;;;;;;;4.93;2.50;;;;;;;14.72;35.21;100181.25;10264803;28;20085;-73
2023/04/26 16:44:05;;;;;;;6.65;2.67;;;;;;;14.59;34.37;100170.88;10267179;28;20138;-74
2023/04/26 16:49:08;;;;;;;4.22;2.05;;;;;;;14.57;34.99;100172.03;10270516;28;20861;-73
2023/04/26 16:54:10;;;;;;;4.87;2.03;;;;;;;14.48;34.56;100181.81;10265402;28;20178;-72
2023/04/26 16:59:11;;;;;;;2.53;1.90;;;;;;;14.34;35.22;100188.50;10253136;28;20290;-73
2023/04/26 17:04:13;;;;;;;7.50;2.72;;;;;;;14.26;35.22;100191.94;10263921;28;20166;-73
2023/04/26 17:09:14;;;;;;;5.40;2.65;;;;;;;14.17;35.63;100191.97;10254947;28;20050;-74
2023/04/26 17:14:16;;;;;;;7.15;3.70;;;;;;;14.10;36.06;100200.59;10279705;28;20046;-75
2023/04/26 17:19:17;;;;;;;3.17;1.80;;;;;;;14.05;35.76;100200.22;10288030;28;20061;-75
2023/04/26 17:24:19;;;;;;;3.47;2.20;;;;;;;13.96;35.92;100206.41;10315699;28;20214;-76
2023/04/26 17:29:20;;;;;;;6.18;3.28;;;;;;;13.86;36.10;100213.66;10325159;28;20057;-76
2023/04/26 17:34:21;;;;;;;4.93;2.42;;;;;;;13.71;36.66;100216.78;10320480;28;20127;-75
2023/04/26 17:39:23;;;;;;;4.25;2.65;;;;;;;13.60;36.85;100214.28;10304104;28;20625;-74
2023/04/26 17:44:25;;;;;;;5.22;2.85;;;;;;;13.58;37.45;100205.56;10277544;28;20054;-73
2023/04/26 17:49:26;;;;;;;5.97;4.00;;;;;;;13.53;36.98;100215.84;10271706;28;20061;-72
2023/04/26 17:54:28;;;;;;;5.10;3.05;;;;;;;13.46;36.42;100215.56;10275216;28;20061;-72
2023/04/26 17:59:29;;;;;;;5.22;3.13;;;;;;;13.40;37.17;100222.31;10275048;28;20050;-74
2023/04/26 18:04:30;;;;;;;4.68;2.63;;;;;;;13.28;37.05;100226.13;10272751;28;20054;-72
2023/04/26 18:09:32;;;;;;;6.35;3.42;;;;;;;13.24;37.25;100238.06;10274994;28;20061;-74
2023/04/26 18:14:34;;;;;;;5.32;2.55;;;;;;;13.18;37.19;100228.81;10277454;28;20058;-76
2023/04/26 18:19:35;;;;;;;3.58;2.60;;;;;;;13.15;37.31;100233.56;10309772;28;20066;-75
2023/04/26 18:24:37;;;;;;;6.15;2.83;;;;;;;13.11;37.19;100237.53;10276978;28;20054;-73
2023/04/26 18:29:38;;;;;;;5.55;2.80;;;;;;;13.05;37.62;100228.25;10272916;28;20046;-76
2023/04/26 18:34:40;;;;;;;2.92;1.90;;;;;;;12.97;37.61;100223.59;10254311;28;20053;-71
2023/04/26 18:39:41;;;;;;;4.60;2.42;;;;;;;12.92;37.92;100247.19;10272482;28;20413;-74
2023/04/26 18:44:43;;;;;;;4.28;2.22;;;;;;;12.87;37.78;100246.78;10272004;28;21013;-75
2023/04/26 18:49:44;;;;;;;5.60;2.75;;;;;;;12.78;38.13;100253.78;10261459;28;20054;-73
2023/04/26 18:54:45;;;;;;;4.57;2.40;;;;;;;12.67;38.46;100256.56;10272376;28;20059;-73
2023/04/26 18:59:48;;;;;;;4.40;2.67;;;;;;;12.62;38.63;100259.66;10272474;28;20188;-72
2023/04/26 19:04:49;;;;;;;8.13;2.83;;;;;;;12.59;38.90;100265.28;10241162;28;20050;-72
2023/04/26 19:09:51;;;;;;;4.15;2.22;;;;;;;12.45;38.93;100263.00;10270659;28;20070;-73
2023/04/26 19:14:55;;;;;;;3.67;2.50;;;;;;;12.41;39.20;100275.75;10263086;28;20081;-72
2023/04/26 19:19:57;;;;;;;5.50;2.30;;;;;;;12.31;39.38;100273.06;10270715;28;20058;-73
2023/04/26 19:24:58;;;;;;;4.45;2.42;;;;;;;12.27;39.63;100276.13;10277798;28;20699;-73
2023/04/26 19:30:00;;;;;;;7.93;2.90;;;;;;;12.21;39.51;100282.84;10241371;28;20082;-73
2023/04/26 19:35:03;;;;;;;5.80;2.55;;;;;;;12.17;40.22;100284.09;10268084;28;20809;-73
2023/04/26 19:40:06;;;;;;;4.00;2.97;;;;;;;12.10;40.84;100283.78;10272056;28;20061;-75
2023/04/26 19:45:08;;;;;;;4.97;3.42;;;;;;;12.06;40.80;100290.34;10272330;28;20057;-73
2023/04/26 19:50:10;;;;;;;5.03;2.95;;;;;;;12.01;41.76;100282.75;10261707;28;20062;-73
2023/04/26 19:55:12;;;;;;;4.53;2.92;;;;;;;12.00;41.99;100286.38;10253131;28;20051;-74
2023/04/26 20:00:14;;;;;;;6.18;3.38;;;;;;;11.98;42.04;100290.16;10255623;28;20057;-73
2023/04/26 20:05:16;;;;;;;5.55;3.20;;;;;;;11.91;41.86;100292.47;10274842;28;20301;-73
2023/04/26 20:10:19;;;;;;;5.28;3.05;;;;;;;11.88;41.75;100287.41;10280816;28;20051;-74
2023/04/26 20:15:20;;;;;;;4.20;2.92;;;;;;;11.84;41.89;100297.50;10266400;28;20050;-74
2023/04/26 20:20:22;;;;;;;5.57;3.40;;;;;;;11.80;42.39;100298.75;10279469;28;20050;-72
2023/04/26 20:25:23;;;;;;;6.80;3.75;;;;;;;11.78;42.18;100295.34;10280965;28;20366;-74
2023/04/26 20:30:28;;;;;;;7.20;3.78;;;;;;;11.74;42.33;100295.72;10267844;28;20060;-74
2023/04/26 20:35:29;;;;;;;6.07;3.42;;;;;;;11.69;42.47;100304.13;10269576;28;20050;-73
2023/04/26 20:40:31;;;;;;;6.80;3.53;;;;;;;11.61;42.98;100293.28;10271051;28;20299;-73
2023/04/26 20:45:32;;;;;;;7.15;3.10;;;;;;;11.63;43.37;100300.16;10263777;28;20046;-73
2023/04/26 20:50:35;;;;;;;5.80;3.70;;;;;;;11.57;43.18;100290.00;10296378;28;20232;-73
2023/04/26 20:55:37;;;;;;;8.75;4.78;;;;;;;11.57;42.88;100298.00;10277320;28;20089;-75
2023/04/26 21:00:39;;;;;;;4.18;3.50;;;;;;;11.51;42.86;100306.50;10259743;28;20106;-73
2023/04/26 21:05:40;;;;;;;4.13;3.08;;;;;;;11.46;43.07;100314.06;10260476;28;20109;-73
2023/04/26 21:10:42;;;;;;;7.28;3.10;;;;;;;11.34;42.80;100309.75;10263829;28;20164;-73
2023/04/26 21:15:43;;;;;;;4.10;3.08;;;;;;;11.32;43.72;100313.38;10266022;28;20472;-72
2023/04/26 21:20:44;;;;;;;8.73;3.22;;;;;;;11.31;43.55;100324.16;10275807;28;20051;-71
2023/04/26 21:25:47;;;;;;;8.82;3.80;;;;;;;11.21;43.94;100318.75;10277827;28;20046;-72
2023/04/26 21:30:48;;;;;;;5.72;3.90;;;;;;;11.15;43.77;100321.91;10274105;28;20156;-72
2023/04/26 21:35:50;;;;;;;6.40;3.83;;;;;;;11.07;43.55;100308.38;10275338;28;20051;-74
2023/04/26 21:40:52;;;;;;;4.90;3.65;;;;;;;11.09;44.13;100315.28;10260672;28;20069;-73
2023/04/26 21:45:56;;;;;;;6.60;3.95;;;;;;;11.11;44.08;100325.81;10279977;28;20054;-73
2023/04/26 21:50:58;;;;;;;9.38;4.90;;;;;;;11.03;44.17;100325.56;10272983;28;20445;-70
2023/04/26 21:56:00;;;;;;;5.15;3.97;;;;;;;10.99;44.62;100321.47;10271522;28;20077;-73
2023/04/26 22:01:10;;;;;;;7.47;4.70;;;;;;;10.97;44.42;100318.94;10276764;28;20050;-70
2023/04/26 22:06:11;;;;;;;5.43;4.18;;;;;;;10.93;44.25;100322.84;10274114;28;20413;-75
2023/04/26 22:11:13;;;;;;;5.80;4.10;;;;;;;10.93;44.31;100334.31;10260882;28;20125;-73
2023/04/26 22:16:14;;;;;;;5.20;4.07;;;;;;;10.88;44.14;100331.16;10271466;28;20482;-73
2023/04/26 22:21:15;;;;;;;6.22;4.03;;;;;;;10.85;43.73;100331.41;10271771;28;20081;-72
2023/04/26 22:26:17;;;;;;;4.57;3.42;;;;;;;10.91;43.77;100343.41;10285818;28;20055;-76
2023/04/26 22:31:18;;;;;;;6.57;3.50;;;;;;;10.91;43.93;100338.94;10275210;28;20046;-70
2023/04/26 22:36:20;;;;;;;4.75;3.50;;;;;;;10.99;43.99;100340.09;10240018;28;20063;-71
2023/04/26 22:41:22;;;;;;;6.50;3.60;;;;;;;11.01;44.50;100343.50;10273133;28;20046;-69
2023/04/26 22:46:23;;;;;;;5.85;3.60;;;;;;;11.04;44.47;100356.59;10271706;28;20213;-74
2023/04/26 22:51:26;;;;;;;5.82;4.03;;;;;;;10.94;44.45;100356.47;10272279;28;20085;-74
2023/04/26 22:56:28;;;;;;;7.13;4.40;;;;;;;10.96;44.64;100355.38;10271417;28;20358;-72
2023/04/26 23:01:30;;;;;;;5.20;4.07;;;;;;;10.93;44.39;100360.94;10264054;28;20050;-72
2023/04/26 23:06:31;;;;;;;8.43;4.30;;;;;;;10.91;44.77;100362.91;10265397;28;20079;-74
2023/04/26 23:11:32;;;;;;;7.65;4.15;;;;;;;10.86;45.24;100364.22;10267667;28;20050;-71
2023/04/26 23:16:34;;;;;;;8.15;3.60;;;;;;;10.79;45.27;100358.53;10270933;28;20046;-75